Time;durP1;ratioP1;P1;durP2;ratioP2;P2;SDS_P1;SDS_P2;PMS_P1;PMS_P2;Temp;Humidity;BMP_temperature;BMP_pressure;BME280_temperature;BME280_humidity;BME280_pressure;Samples;Min_cycle;Max_cycle;Signal;HPM_P1;HPM_P2
2023/12/25 00:01:15;;;;;;;8.23;2.45;;;;;;;10.18;91.29;99553.81;6094083;23;20017;-87
2023/12/25 00:03:42;;;;;;;7.85;2.17;;;;;;;10.19;91.34;99551.00;6143435;23;20017;-87
2023/12/25 00:06:17;;;;;;;11.82;2.85;;;;;;;10.19;91.83;99555.47;6145584;23;20020;-86
2023/12/25 00:08:45;;;;;;;9.05;3.28;;;;;;;10.18;92.07;99570.56;6095205;23;20021;-87
2023/12/25 00:11:12;;;;;;;3.53;1.85;;;;;;;10.16;92.91;99571.69;6142765;23;20468;-86
2023/12/25 00:13:39;;;;;;;6.88;1.80;;;;;;;10.16;92.80;99564.56;6167510;23;20471;-88
2023/12/25 00:16:06;;;;;;;9.10;2.88;;;;;;;10.14;93.65;99561.19;6143432;23;20503;-87
2023/12/25 00:18:33;;;;;;;6.80;1.85;;;;;;;10.14;94.08;99574.47;6094473;23;20024;-87
2023/12/25 00:21:00;;;;;;;8.55;1.80;;;;;;;10.14;94.13;99570.97;6094665;23;20017;-87
2023/12/25 00:23:27;;;;;;;7.22;1.80;;;;;;;10.11;94.55;99572.09;6143034;23;20017;-87
2023/12/25 00:25:54;;;;;;;8.85;1.65;;;;;;;10.12;94.78;99579.06;6094697;23;20025;-86
2023/12/25 00:28:21;;;;;;;5.57;1.90;;;;;;;10.10;95.28;99557.16;6118823;23;20041;-87
2023/12/25 00:30:47;;;;;;;7.90;2.63;;;;;;;10.07;95.96;99564.53;6141724;23;20029;-87
2023/12/25 00:33:14;;;;;;;5.82;2.00;;;;;;;10.04;96.28;99568.31;6119438;23;20033;-86
2023/12/25 00:35:43;;;;;;;4.38;1.70;;;;;;;10.03;96.29;99563.16;6144091;23;20021;-87
2023/12/25 00:38:09;;;;;;;8.02;2.05;;;;;;;10.00;96.71;99564.28;6094367;23;20063;-88
2023/12/25 00:40:36;;;;;;;4.60;1.85;;;;;;;10.02;96.75;99558.81;6142300;23;20091;-86
2023/12/25 00:43:08;;;;;;;7.80;1.95;;;;;;;9.96;98.29;99544.31;6120529;23;20049;-87
2023/12/25 00:45:34;;;;;;;5.43;1.73;;;;;;;10.03;97.57;99541.94;6118676;23;20014;-87
2023/12/25 00:48:01;;;;;;;6.90;2.33;;;;;;;9.98;97.89;99542.34;6118646;23;20080;-87
2023/12/25 00:50:29;;;;;;;7.32;1.83;;;;;;;9.96;97.73;99554.91;6118199;23;20053;-86
2023/12/25 00:52:55;;;;;;;7.57;1.73;;;;;;;9.99;97.46;99544.84;6119148;23;20028;-87
2023/12/25 00:55:22;;;;;;;7.72;2.55;;;;;;;10.00;97.21;99535.09;6094097;23;20040;-87
2023/12/25 00:57:49;;;;;;;4.05;1.85;;;;;;;10.04;97.22;99538.31;6143848;23;20093;-87
2023/12/25 01:00:17;;;;;;;5.45;1.70;;;;;;;10.05;96.91;99539.97;6142243;23;20049;-87
2023/12/25 01:02:44;;;;;;;5.03;1.63;;;;;;;10.04;96.84;99520.56;6119187;23;20414;-87
2023/12/25 01:05:11;;;;;;;5.32;1.85;;;;;;;10.03;96.42;99534.00;6143037;23;20037;-86
2023/12/25 01:07:38;;;;;;;4.05;1.60;;;;;;;10.04;95.92;99531.19;6119387;23;20026;-87
2023/12/25 01:10:05;;;;;;;3.83;2.00;;;;;;;10.05;95.94;99546.13;6117999;23;20026;-87
2023/12/25 01:12:32;;;;;;;3.47;1.77;;;;;;;9.92;95.51;99534.94;6094922;23;20025;-87
2023/12/25 01:14:58;;;;;;;4.13;1.70;;;;;;;10.03;95.67;99526.03;6070727;23;20018;-86
2023/12/25 01:17:26;;;;;;;3.10;1.52;;;;;;;9.99;95.30;99536.06;6143249;23;20037;-87
2023/12/25 01:19:53;;;;;;;5.45;1.55;;;;;;;9.99;94.99;99520.97;6117929;23;20093;-87
2023/12/25 01:22:20;;;;;;;5.25;1.98;;;;;;;9.93;94.47;99518.91;6118535;23;20507;-87
2023/12/25 01:24:46;;;;;;;6.10;1.77;;;;;;;10.04;94.63;99527.69;6094006;23;20017;-86
2023/12/25 01:27:13;;;;;;;4.70;1.67;;;;;;;10.08;94.60;99518.50;6143845;23;20017;-87
2023/12/25 01:29:40;;;;;;;3.75;1.73;;;;;;;10.09;94.40;99528.94;6143509;23;20052;-87
2023/12/25 01:32:07;;;;;;;3.88;1.17;;;;;;;10.08;94.13;99529.94;6144556;23;20025;-87
2023/12/25 01:34:34;;;;;;;3.85;1.80;;;;;;;10.08;93.83;99540.53;6121183;23;20068;-87
2023/12/25 01:37:01;;;;;;;3.00;1.40;;;;;;;9.97;93.32;99532.72;6144573;23;20441;-87
2023/12/25 01:39:28;;;;;;;3.05;1.48;;;;;;;9.98;93.22;99521.97;6119154;23;20036;-87
2023/12/25 01:41:55;;;;;;;6.53;2.00;;;;;;;10.05;93.61;99530.22;6096903;23;20036;-86
2023/12/25 01:44:21;;;;;;;5.13;1.38;;;;;;;10.10;92.81;99532.44;6144210;23;20076;-88
2023/12/25 01:46:53;;;;;;;3.83;1.60;;;;;;;10.12;92.80;99528.66;6120712;23;20100;-87
2023/12/25 01:49:20;;;;;;;22.83;3.78;;;;;;;10.11;92.55;99511.06;6119931;23;20094;-87
2023/12/25 01:51:47;;;;;;;9.82;1.42;;;;;;;10.05;91.40;99518.75;6145100;23;20021;-86
2023/12/25 01:54:14;;;;;;;2.22;1.23;;;;;;;9.98;91.16;99529.94;6144701;23;20085;-86
2023/12/25 01:56:42;;;;;;;3.53;1.80;;;;;;;10.10;92.10;99535.06;6144783;23;20461;-87
2023/12/25 01:59:09;;;;;;;3.78;1.27;;;;;;;10.10;91.65;99535.94;6144852;23;20021;-87
2023/12/25 02:01:36;;;;;;;6.72;1.67;;;;;;;10.08;91.19;99529.09;6095593;23;20630;-87
2023/12/25 02:04:03;;;;;;;2.20;1.40;;;;;;;10.10;91.32;99543.91;6144511;23;20460;-87
2023/12/25 02:06:32;;;;;;;9.27;2.15;;;;;;;10.10;91.40;99554.50;6145545;23;20029;-87
2023/12/25 02:08:59;;;;;;;3.53;1.23;;;;;;;10.11;91.01;99555.34;6120182;23;20067;-86
2023/12/25 02:11:26;;;;;;;2.30;1.58;;;;;;;10.12;90.99;99573.75;6143715;23;20025;-86
2023/12/25 02:13:56;;;;;;;4.72;1.63;;;;;;;10.14;91.22;99563.84;6120435;23;20108;-86
2023/12/25 02:16:24;;;;;;;5.80;1.35;;;;;;;10.12;90.87;99543.75;6145148;23;20022;-86
2023/12/25 02:18:52;;;;;;;4.15;1.50;;;;;;;10.14;91.18;99547.09;6120175;23;20096;-86
2023/12/25 02:21:19;;;;;;;3.58;1.70;;;;;;;10.14;90.92;99555.88;6118983;23;20101;-86
2023/12/25 02:23:46;;;;;;;1.85;1.20;;;;;;;10.13;90.17;99556.88;6119643;23;20100;-86
2023/12/25 02:26:13;;;;;;;5.32;1.42;;;;;;;10.10;90.04;99564.25;6120180;23;20076;-86
2023/12/25 02:28:41;;;;;;;5.05;1.42;;;;;;;10.08;90.04;99550.31;6144470;23;20150;-86
2023/12/25 02:31:08;;;;;;;7.97;1.50;;;;;;;10.04;89.84;99547.09;6095072;23;20025;-86
2023/12/25 02:33:35;;;;;;;3.10;1.52;;;;;;;10.01;89.43;99536.78;6119862;23;20013;-86
2023/12/25 02:36:02;;;;;;;2.20;1.30;;;;;;;10.06;89.47;99541.66;6120561;23;20049;-87
2023/12/25 02:38:29;;;;;;;4.07;1.88;;;;;;;10.11;89.40;99548.22;6094941;23;20029;-86
2023/12/25 02:40:56;;;;;;;4.43;1.30;;;;;;;10.12;89.47;99539.28;6118715;23;20025;-86
2023/12/25 02:43:23;;;;;;;6.60;1.77;;;;;;;10.06;89.10;99546.97;6119473;23;20048;-86
2023/12/25 02:45:50;;;;;;;6.13;1.73;;;;;;;10.08;89.10;99543.19;6119726;23;20021;-86
2023/12/25 02:48:17;;;;;;;2.45;1.05;;;;;;;10.12;89.64;99552.53;6144957;23;20084;-87
2023/12/25 02:50:44;;;;;;;2.47;1.33;;;;;;;10.15;89.58;99554.06;6118886;23;20018;-87
2023/12/25 02:53:11;;;;;;;4.45;1.20;;;;;;;10.15;89.55;99540.81;6096208;23;20037;-86
2023/12/25 02:55:39;;;;;;;5.78;1.33;;;;;;;10.12;89.18;99541.09;6119778;23;20652;-86
2023/12/25 02:58:06;;;;;;;5.05;1.38;;;;;;;10.09;88.63;99549.34;6145091;23;20512;-87
2023/12/25 03:00:33;;;;;;;4.03;1.55;;;;;;;10.09;88.71;99538.72;6118333;23;20049;-86
2023/12/25 03:02:59;;;;;;;8.02;1.60;;;;;;;10.09;88.70;99549.34;6144572;23;20342;-87
2023/12/25 03:05:26;;;;;;;2.67;1.13;;;;;;;10.06;88.79;99539.84;6144130;23;20080;-86
2023/12/25 03:07:53;;;;;;;5.72;1.40;;;;;;;10.12;89.14;99549.88;6144480;23;20021;-86
2023/12/25 03:10:21;;;;;;;1.95;1.10;;;;;;;10.12;88.74;99549.06;6118525;23;20025;-86
2023/12/25 03:12:47;;;;;;;4.50;1.60;;;;;;;10.03;87.82;99550.75;6144194;23;20401;-86
2023/12/25 03:15:14;;;;;;;4.75;1.45;;;;;;;10.12;88.69;99546.41;6119325;23;20026;-87
2023/12/25 03:17:41;;;;;;;4.05;1.40;;;;;;;10.12;88.15;99552.53;6095022;23;20022;-86
2023/12/25 03:20:08;;;;;;;3.22;1.00;;;;;;;10.14;88.13;99563.84;6094306;23;20021;-86
2023/12/25 03:22:35;;;;;;;4.32;1.33;;;;;;;10.13;88.22;99566.66;6095393;23;20017;-87
2023/12/25 03:25:02;;;;;;;2.17;1.20;;;;;;;10.03;87.47;99560.50;6119689;23;20053;-87
2023/12/25 03:27:29;;;;;;;2.08;1.17;;;;;;;10.11;88.30;99571.25;6094729;23;20497;-86
2023/12/25 03:29:55;;;;;;;2.63;1.13;;;;;;;10.11;88.20;99568.59;6143090;23;20028;-87
2023/12/25 03:32:22;;;;;;;5.32;1.35;;;;;;;10.16;88.61;99579.66;6118560;23;20477;-86
2023/12/25 03:34:49;;;;;;;3.00;1.15;;;;;;;10.18;88.38;99562.59;6119758;23;20397;-86
2023/12/25 03:37:16;;;;;;;2.53;0.80;;;;;;;10.19;88.69;99572.22;6144032;23;20018;-86
2023/12/25 03:39:43;;;;;;;4.60;1.25;;;;;;;10.19;88.46;99561.63;6093980;23;20029;-87
2023/12/25 03:42:10;;;;;;;1.67;1.15;;;;;;;10.20;88.61;99559.78;6120148;23;20084;-87
2023/12/25 03:44:37;;;;;;;3.72;1.20;;;;;;;10.19;88.47;99558.97;6119314;23;20022;-87
2023/12/25 03:47:04;;;;;;;2.95;1.25;;;;;;;10.14;87.99;99555.88;6118947;23;20401;-86
2023/12/25 03:49:30;;;;;;;2.95;1.20;;;;;;;10.16;88.13;99556.59;6118890;23;20017;-87
2023/12/25 03:51:58;;;;;;;2.22;1.63;;;;;;;10.19;88.32;99556.31;6143286;23;20049;-87
2023/12/25 03:54:24;;;;;;;4.85;1.30;;;;;;;10.19;88.46;99566.09;6142549;23;20080;-86
2023/12/25 03:56:51;;;;;;;4.95;1.33;;;;;;;10.14;88.19;99549.75;6119783;23;20013;-86
2023/12/25 03:59:18;;;;;;;3.00;1.08;;;;;;;10.14;88.19;99555.06;6094080;23;20402;-87
2023/12/25 04:01:45;;;;;;;4.70;1.20;;;;;;;10.16;88.47;99545.97;6118767;23;20021;-86
2023/12/25 04:04:13;;;;;;;4.60;1.05;;;;;;;10.15;88.70;99570.84;6119578;23;20093;-87
2023/12/25 04:06:40;;;;;;;3.25;1.02;;;;;;;10.13;88.71;99558.69;6094928;23;20033;-87
2023/12/25 04:09:08;;;;;;;3.22;1.30;;;;;;;10.11;88.68;99565.97;6095140;23;20464;-87
2023/12/25 04:11:35;;;;;;;2.20;1.00;;;;;;;10.14;88.74;99558.53;6117761;23;20024;-86
2023/12/25 04:14:02;;;;;;;1.52;0.90;;;;;;;10.11;88.93;99553.53;6095562;23;20022;-86
2023/12/25 04:16:29;;;;;;;2.58;1.08;;;;;;;10.03;89.90;99571.13;6094454;23;20453;-86
2023/12/25 04:18:56;;;;;;;1.48;1.10;;;;;;;10.11;89.74;99569.44;6090491;23;20342;-87
2023/12/25 04:21:23;;;;;;;4.78;1.27;;;;;;;10.08;90.16;99568.91;6093533;23;20027;-86
2023/12/25 04:23:51;;;;;;;3.85;1.20;;;;;;;10.11;90.09;99569.44;6143787;23;20080;-86
2023/12/25 04:26:19;;;;;;;3.08;1.00;;;;;;;10.08;90.60;99576.84;6118871;23;20045;-87
2023/12/25 04:28:47;;;;;;;2.85;1.13;;;;;;;10.05;91.13;99564.72;6042118;23;20436;-86
2023/12/25 04:31:16;;;;;;;1.83;0.85;;;;;;;10.05;91.47;99570.00;6102362;23;20021;-86
2023/12/25 04:33:43;;;;;;;3.30;0.93;;;;;;;10.06;91.51;99569.03;6136761;23;20022;-86
2023/12/25 04:36:11;;;;;;;2.92;1.05;;;;;;;10.03;92.09;99565.81;6114877;23;20034;-87
2023/12/25 04:38:38;;;;;;;2.67;0.90;;;;;;;9.98;92.79;99571.53;6089927;23;20025;-87
2023/12/25 04:41:06;;;;;;;2.25;1.10;;;;;;;10.02;92.49;99570.25;6065259;23;20030;-87
2023/12/25 04:43:32;;;;;;;2.45;1.02;;;;;;;10.03;92.52;99557.88;6113460;23;20701;-86
2023/12/25 04:46:02;;;;;;;7.20;1.35;;;;;;;10.07;92.19;99569.84;6114362;23;20054;-87
2023/12/25 04:48:29;;;;;;;1.88;1.00;;;;;;;10.06;92.30;99568.19;6095317;23;20017;-87
2023/12/25 04:50:59;;;;;;;2.28;1.00;;;;;;;10.03;91.84;99564.00;6093941;23;20030;-87
2023/12/25 04:53:26;;;;;;;2.42;1.00;;;;;;;10.00;91.70;99558.97;6118773;23;20042;-87
2023/12/25 04:55:53;;;;;;;3.08;1.20;;;;;;;10.05;91.47;99564.72;6118953;23;20088;-87
2023/12/25 04:58:21;;;;;;;3.95;1.00;;;;;;;10.04;91.68;99562.19;6069173;23;20022;-87
2023/12/25 05:00:48;;;;;;;5.85;1.88;;;;;;;10.05;91.63;99545.28;6112214;23;20698;-86
2023/12/25 05:03:15;;;;;;;4.22;1.08;;;;;;;10.04;91.19;99560.34;6091561;23;20092;-87
2023/12/25 05:05:42;;;;;;;2.92;1.35;;;;;;;10.00;90.79;99553.66;6093101;23;20049;-87
2023/12/25 05:08:08;;;;;;;3.25;1.10;;;;;;;9.96;90.19;99561.06;6092137;23;20117;-87
2023/12/25 05:10:35;;;;;;;2.58;1.13;;;;;;;10.01;90.22;99558.00;6114944;23;20018;-88
2023/12/25 05:13:02;;;;;;;2.45;0.90;;;;;;;9.95;89.74;99545.28;6117132;23;20697;-87
2023/12/25 05:15:29;;;;;;;2.70;1.20;;;;;;;9.89;88.82;99544.00;6091695;23;20072;-86
2023/12/25 05:17:56;;;;;;;1.35;0.80;;;;;;;9.97;89.52;99530.91;6093353;23;20093;-86
2023/12/25 05:20:23;;;;;;;1.70;0.90;;;;;;;9.92;88.83;99549.06;6092379;23;20441;-86
2023/12/25 05:22:50;;;;;;;3.80;1.13;;;;;;;10.03;89.43;99558.69;6115920;23;20587;-86
2023/12/25 05:25:17;;;;;;;2.92;1.10;;;;;;;9.95;89.14;99555.91;6092670;23;20857;-87
2023/12/25 05:27:44;;;;;;;3.33;1.15;;;;;;;10.06;89.12;99565.53;6066781;23;20030;-86
2023/12/25 05:30:11;;;;;;;1.65;1.10;;;;;;;9.93;88.44;99561.34;6135934;23;20867;-86
2023/12/25 05:32:38;;;;;;;0.90;0.80;;;;;;;10.02;88.67;99564.13;6091252;23;20097;-86
2023/12/25 05:35:05;;;;;;;2.47;1.20;;;;;;;10.02;88.88;99559.66;6090926;23;20041;-86
2023/12/25 05:37:33;;;;;;;4.57;2.30;;;;;;;10.03;88.99;99545.44;6139761;23;20025;-87
2023/12/25 05:40:00;;;;;;;2.70;1.20;;;;;;;10.07;89.07;99552.13;6116939;23;20025;-87
2023/12/25 05:42:27;;;;;;;1.42;1.05;;;;;;;10.06;89.04;99569.03;6139649;23;20462;-86
2023/12/25 05:44:53;;;;;;;5.85;1.42;;;;;;;9.88;88.42;99563.56;6091127;23;20049;-87
2023/12/25 05:47:20;;;;;;;3.53;1.00;;;;;;;9.99;88.69;99573.19;6081469;23;20079;-86
2023/12/25 05:49:47;;;;;;;1.58;0.85;;;;;;;9.98;88.72;99575.03;6090323;23;20108;-86
2023/12/25 05:52:14;;;;;;;3.97;1.40;;;;;;;9.99;88.77;99576.69;6090839;23;20362;-87
2023/12/25 05:54:42;;;;;;;3.55;2.33;;;;;;;10.03;88.54;99561.34;6095183;23;20030;-86
2023/12/25 05:57:09;;;;;;;3.15;1.55;;;;;;;9.94;88.38;99565.66;6115242;23;20033;-86
2023/12/25 05:59:37;;;;;;;2.35;1.25;;;;;;;9.92;89.52;99580.88;6066566;23;20024;-87
2023/12/25 06:02:04;;;;;;;2.40;0.82;;;;;;;9.95;90.15;99575.31;6070564;23;20038;-86
2023/12/25 06:04:31;;;;;;;4.53;1.13;;;;;;;9.97;90.42;99562.75;6091163;23;20093;-86
2023/12/25 06:06:58;;;;;;;7.15;1.30;;;;;;;10.00;90.32;99567.78;6091574;23;20166;-85
2023/12/25 06:09:26;;;;;;;1.23;1.10;;;;;;;9.95;91.09;99571.81;6114537;23;20021;-86
2023/12/25 06:11:53;;;;;;;2.50;1.08;;;;;;;9.98;90.72;99568.88;6091479;23;20097;-86
2023/12/25 06:14:19;;;;;;;4.15;1.38;;;;;;;9.90;90.18;99563.44;6116380;23;20028;-86
2023/12/25 06:16:46;;;;;;;1.67;1.15;;;;;;;9.97;90.01;99564.53;6115973;23;20454;-86
2023/12/25 06:19:13;;;;;;;1.85;0.95;;;;;;;9.99;89.39;99565.25;6089159;23;20429;-87
2023/12/25 06:21:40;;;;;;;3.42;1.02;;;;;;;9.99;89.63;99571.38;6091160;23;20024;-87
2023/12/25 06:24:07;;;;;;;2.47;1.35;;;;;;;10.00;89.39;99564.28;6117482;23;20029;-87
2023/12/25 06:26:34;;;;;;;3.08;1.55;;;;;;;10.00;90.29;99573.06;6089967;23;20057;-87
2023/12/25 06:29:01;;;;;;;2.08;1.50;;;;;;;10.00;90.92;99585.50;6090580;23;20089;-87
2023/12/25 06:31:27;;;;;;;4.35;1.27;;;;;;;9.95;92.15;99569.16;6113369;23;20084;-87
2023/12/25 06:33:54;;;;;;;2.45;1.13;;;;;;;9.91;92.55;99589.81;6115410;23;20517;-87
2023/12/25 06:36:21;;;;;;;3.17;1.27;;;;;;;9.93;92.38;99585.22;6097054;23;20045;-87
2023/12/25 06:38:48;;;;;;;3.78;1.80;;;;;;;9.94;92.28;99594.00;6113944;23;20024;-87
2023/12/25 06:41:15;;;;;;;5.28;1.35;;;;;;;9.94;91.65;99594.81;6075764;23;20029;-86
2023/12/25 06:43:42;;;;;;;4.13;1.20;;;;;;;9.90;91.92;99603.22;6114816;23;20085;-87
2023/12/25 06:46:08;;;;;;;3.53;1.17;;;;;;;9.92;91.61;99604.75;6090470;23;20017;-86
2023/12/25 06:48:35;;;;;;;3.92;1.20;;;;;;;9.93;91.51;99609.06;6115375;23;20022;-87
2023/12/25 06:51:02;;;;;;;4.50;1.42;;;;;;;9.94;92.17;99602.78;6143349;23;20031;-86
2023/12/25 06:53:29;;;;;;;1.67;1.08;;;;;;;9.93;92.44;99611.72;6095408;23;20018;-86
2023/12/25 06:55:56;;;;;;;5.00;1.20;;;;;;;9.97;92.39;99614.94;6120377;23;20018;-87
2023/12/25 06:58:23;;;;;;;2.45;1.20;;;;;;;9.96;92.71;99607.97;6094500;23;20028;-88
2023/12/25 07:00:49;;;;;;;2.08;1.20;;;;;;;9.95;93.21;99612.44;6143252;23;20025;-87
2023/12/25 07:03:16;;;;;;;2.35;1.20;;;;;;;9.95;93.71;99606.31;6144934;23;20029;-86
2023/12/25 07:05:43;;;;;;;7.18;1.55;;;;;;;9.94;93.40;99615.22;6095673;23;20025;-87
2023/12/25 07:08:10;;;;;;;3.67;1.40;;;;;;;9.93;93.66;99617.03;6119628;23;20025;-87
2023/12/25 07:10:38;;;;;;;1.58;1.38;;;;;;;9.93;93.97;99610.91;6143904;23;20092;-87
2023/12/25 07:13:05;;;;;;;3.17;1.30;;;;;;;9.91;93.96;99626.09;6120013;23;20025;-87
2023/12/25 07:15:33;;;;;;;2.55;1.30;;;;;;;9.84;94.63;99639.06;6118751;23;20878;-87
2023/12/25 07:17:59;;;;;;;4.72;1.50;;;;;;;9.86;94.52;99637.13;6120339;23;20104;-87
2023/12/25 07:20:27;;;;;;;2.28;1.38;;;;;;;9.84;95.02;99636.41;6119115;23;20080;-87
2023/12/25 07:22:54;;;;;;;8.90;1.60;;;;;;;9.85;95.34;99634.63;6119986;23;20028;-87
2023/12/25 07:25:20;;;;;;;5.18;2.00;;;;;;;9.84;96.37;99627.63;6119083;23;20021;-87
2023/12/25 07:27:47;;;;;;;6.72;2.53;;;;;;;9.83;96.11;99633.91;6119695;23;20025;-87
2023/12/25 07:30:14;;;;;;;7.20;4.00;;;;;;;9.82;96.28;99646.34;6118324;23;20035;-87
2023/12/25 07:32:41;;;;;;;6.80;2.45;;;;;;;9.80;96.04;99639.50;6119097;23;20085;-87
2023/12/25 07:35:08;;;;;;;11.30;4.57;;;;;;;9.82;95.94;99650.78;6119899;23;20040;-87
2023/12/25 07:37:35;;;;;;;5.65;2.63;;;;;;;9.81;96.23;99662.38;6095277;23;20026;-86
2023/12/25 07:40:03;;;;;;;7.05;2.40;;;;;;;9.79;96.12;99667.78;6119018;23;20013;-87
2023/12/25 07:42:30;;;;;;;6.38;2.50;;;;;;;9.78;96.71;99671.44;6094712;23;20093;-87
2023/12/25 07:44:56;;;;;;;8.23;3.50;;;;;;;9.80;96.32;99676.63;6119074;23;20021;-87
2023/12/25 07:47:23;;;;;;;8.38;2.67;;;;;;;9.81;96.34;99683.59;6095560;23;20392;-87
2023/12/25 07:49:51;;;;;;;7.65;2.55;;;;;;;9.78;96.81;99688.19;6142925;23;20022;-87
2023/12/25 07:52:18;;;;;;;6.22;3.05;;;;;;;9.80;97.17;99681.91;6119059;23;20033;-87
2023/12/25 07:54:45;;;;;;;17.02;4.82;;;;;;;9.80;96.64;99685.41;6144566;23;20028;-87
2023/12/25 07:57:12;;;;;;;4.75;2.30;;;;;;;9.77;96.93;99688.34;6143707;23;20029;-87
2023/12/25 07:59:39;;;;;;;7.60;2.75;;;;;;;9.78;97.04;99690.81;6118107;23;20092;-87
2023/12/25 08:02:06;;;;;;;5.47;2.22;;;;;;;9.78;95.90;99692.66;6095550;23;20025;-87
2023/12/25 08:04:32;;;;;;;5.45;2.67;;;;;;;9.74;96.11;99693.88;6119219;23;20033;-87
2023/12/25 08:06:59;;;;;;;5.80;1.85;;;;;;;9.76;95.81;99700.72;6119707;23;20017;-87
2023/12/25 08:09:26;;;;;;;5.05;1.67;;;;;;;9.73;95.92;99695.69;6118524;23;20130;-87
2023/12/25 08:11:53;;;;;;;8.82;2.85;;;;;;;9.70;96.47;99698.63;6093446;23;20029;-86
2023/12/25 08:14:19;;;;;;;5.40;2.30;;;;;;;9.74;95.31;99701.81;6119348;23;20030;-87
2023/12/25 08:16:46;;;;;;;3.35;1.92;;;;;;;9.72;94.92;99701.97;6094179;23;20080;-87
2023/12/25 08:19:13;;;;;;;4.60;2.03;;;;;;;9.73;95.43;99698.34;6118150;23;20397;-87
2023/12/25 08:21:40;;;;;;;2.70;1.85;;;;;;;9.72;95.83;99696.69;6142582;23;20052;-87
2023/12/25 08:24:07;;;;;;;8.35;2.17;;;;;;;9.74;95.95;99708.00;6143013;23;20445;-87
2023/12/25 08:26:35;;;;;;;4.20;1.88;;;;;;;9.76;94.21;99705.19;6143443;23;20919;-87
2023/12/25 08:29:02;;;;;;;2.90;1.80;;;;;;;9.70;95.03;99705.75;6119032;23;20045;-87
2023/12/25 08:31:28;;;;;;;5.22;2.35;;;;;;;9.56;96.29;99705.09;6142258;23;20041;-87
2023/12/25 08:33:55;;;;;;;4.15;2.20;;;;;;;9.67;96.05;99709.50;6144262;23;20022;-87
2023/12/25 08:36:22;;;;;;;5.07;2.70;;;;;;;9.65;95.50;99708.78;6094214;23;20049;-85
2023/12/25 08:38:49;;;;;;;5.13;2.08;;;;;;;9.68;95.73;99716.47;6094635;23;20041;-87
2023/12/25 08:41:15;;;;;;;4.75;1.80;;;;;;;9.67;95.96;99714.81;6142574;23;20021;-89
2023/12/25 08:43:42;;;;;;;7.10;1.98;;;;;;;9.69;95.52;99707.56;6142171;23;20473;-89
2023/12/25 08:46:16;;;;;;;3.88;1.50;;;;;;;9.69;95.70;99702.25;6095752;23;20104;-89
2023/12/25 08:48:43;;;;;;;8.18;1.98;;;;;;;9.68;96.25;99711.16;6118474;23;20096;-89
2023/12/25 08:51:10;;;;;;;8.48;2.13;;;;;;;9.65;96.72;99708.78;6117014;23;20886;-90
2023/12/25 08:53:37;;;;;;;6.18;3.00;;;;;;;9.68;97.19;99710.34;6094781;23;20020;-90
2023/12/25 08:56:04;;;;;;;11.75;3.78;;;;;;;9.66;97.74;99712.28;6094964;23;20026;-90
2023/12/25 08:58:31;;;;;;;4.90;1.90;;;;;;;9.67;97.31;99727.22;6118532;23;20052;-89
2023/12/25 09:00:58;;;;;;;6.18;2.33;;;;;;;9.63;98.19;99721.34;6093552;23;20013;-89
2023/12/25 09:03:25;;;;;;;6.90;2.00;;;;;;;9.64;98.00;99738.94;6118502;23;20361;-91
2023/12/25 09:05:52;;;;;;;4.38;1.60;;;;;;;9.67;98.45;99732.53;6119107;23;20056;-88
2023/12/25 09:08:21;;;;;;;5.35;2.00;;;;;;;9.65;97.69;99739.75;6119007;23;20088;-90
2023/12/25 09:10:48;;;;;;;4.82;1.95;;;;;;;9.65;98.06;99737.13;6117216;23;20025;-86
2023/12/25 09:13:16;;;;;;;2.65;1.52;;;;;;;9.60;97.53;99740.16;6093292;23;20076;-85
2023/12/25 09:15:43;;;;;;;6.40;2.20;;;;;;;9.61;97.44;99744.47;6118694;23;20032;-85
2023/12/25 09:18:10;;;;;;;5.47;2.47;;;;;;;9.63;97.77;99747.84;6117330;23;20030;-85
2023/12/25 09:20:37;;;;;;;11.52;4.65;;;;;;;9.65;98.13;99753.03;6092335;23;20020;-85
2023/12/25 09:23:04;;;;;;;5.75;2.55;;;;;;;9.64;98.22;99752.19;6118820;23;20025;-87
2023/12/25 09:25:31;;;;;;;6.57;2.38;;;;;;;9.66;97.98;99750.22;6118267;23;20531;-92
2023/12/25 09:27:58;;;;;;;7.25;2.00;;;;;;;9.67;97.81;99746.63;6094726;23;20021;-92
2023/12/25 09:30:24;;;;;;;2.10;1.67;;;;;;;9.69;97.70;99749.13;6094163;23;20013;-89
2023/12/25 09:32:51;;;;;;;10.23;2.67;;;;;;;9.67;98.01;99751.91;6118641;23;20084;-92
2023/12/25 09:35:18;;;;;;;10.48;3.60;;;;;;;9.69;98.62;99762.38;6118561;23;20123;-88
2023/12/25 09:37:45;;;;;;;3.55;2.15;;;;;;;9.72;98.24;99768.28;6094397;23;20018;-86
2023/12/25 09:40:12;;;;;;;4.82;2.00;;;;;;;9.72;98.34;99762.13;6130360;23;20747;-85
2023/12/25 09:42:39;;;;;;;4.32;2.10;;;;;;;9.73;98.43;99758.50;6116892;23;20025;-85
2023/12/25 09:45:07;;;;;;;2.95;1.58;;;;;;;9.72;98.50;99762.97;6142982;23;20022;-87
2023/12/25 09:47:35;;;;;;;2.30;1.95;;;;;;;9.74;98.45;99768.13;6116764;23;20021;-88
2023/12/25 09:50:05;;;;;;;4.15;1.40;;;;;;;9.69;98.37;99754.41;6119300;23;20029;-87
2023/12/25 09:52:32;;;;;;;5.35;2.00;;;;;;;9.72;97.95;99765.63;6094244;23;20025;-86
2023/12/25 09:54:59;;;;;;;6.18;2.90;;;;;;;9.69;98.12;99765.03;6120875;23;20049;-86
2023/12/25 09:57:27;;;;;;;3.72;1.90;;;;;;;9.70;98.26;99762.25;6095794;23;20056;-87
2023/12/25 09:59:55;;;;;;;6.10;2.00;;;;;;;9.71;98.42;99758.63;6094713;23;20352;-89
2023/12/25 10:02:23;;;;;;;5.75;3.15;;;;;;;9.71;98.76;99769.22;6119753;23;20025;-88
2023/12/25 10:04:50;;;;;;;5.10;2.20;;;;;;;9.72;98.47;99760.31;6095341;23;20021;-87
2023/12/25 10:07:20;;;;;;;8.55;2.20;;;;;;;9.72;98.43;99765.63;6096102;23;20041;-88
2023/12/25 10:09:49;;;;;;;7.15;2.90;;;;;;;9.70;98.62;99761.41;6142765;23;20180;-87
2023/12/25 10:12:15;;;;;;;6.22;2.85;;;;;;;9.70;98.66;99748.16;6119676;23;20025;-85
2023/12/25 10:14:42;;;;;;;3.78;2.20;;;;;;;9.70;98.90;99750.81;6120350;23;20093;-87
2023/12/25 10:17:09;;;;;;;7.70;3.20;;;;;;;9.70;98.79;99738.38;6095272;23;20049;-86
2023/12/25 10:19:48;;;;;;;5.03;2.63;;;;;;;9.69;99.11;99744.69;6142421;23;20125;-87
2023/12/25 10:22:32;;;;;;;9.00;2.25;;;;;;;9.66;99.20;99747.56;6093551;23;20085;-87
2023/12/25 10:25:10;;;;;;;4.78;1.98;;;;;;;9.63;98.56;99737.22;6106054;23;20032;-88
2023/12/25 10:27:38;;;;;;;3.60;1.80;;;;;;;9.61;99.31;99736.53;6144287;23;20021;-87
2023/12/25 10:30:16;;;;;;;4.30;1.98;;;;;;;9.66;98.91;99734.31;6142777;23;20458;-87
2023/12/25 10:32:43;;;;;;;3.97;1.80;;;;;;;9.69;98.60;99744.69;6140176;23;20025;-87
2023/12/25 10:35:14;;;;;;;4.82;1.60;;;;;;;9.72;98.30;99747.06;6114831;23;20119;-88
2023/12/25 10:37:42;;;;;;;2.63;1.75;;;;;;;9.72;98.54;99744.41;6089209;23;20388;-88
2023/12/25 10:40:24;;;;;;;2.72;1.50;;;;;;;9.71;98.13;99745.38;6091978;23;20013;-89
2023/12/25 10:42:54;;;;;;;1.92;1.25;;;;;;;9.74;98.04;99739.81;6138474;23;20781;-85
2023/12/25 10:45:23;;;;;;;2.50;1.38;;;;;;;9.76;98.49;99743.16;6079875;23;20033;-86
2023/12/25 10:47:51;;;;;;;4.57;2.22;;;;;;;9.76;98.55;99740.50;6115274;23;20080;-86
2023/12/25 10:50:30;;;;;;;3.65;2.10;;;;;;;9.73;98.49;99732.81;6118162;23;20509;-87
2023/12/25 10:53:00;;;;;;;2.88;2.10;;;;;;;9.73;98.42;99732.81;6115348;23;20026;-89
2023/12/25 10:55:40;;;;;;;4.70;1.63;;;;;;;9.69;97.84;99739.38;6094259;23;20026;-87
2023/12/25 10:58:11;;;;;;;1.48;1.35;;;;;;;9.76;97.94;99735.19;6143509;23;20021;-88
2023/12/25 11:00:42;;;;;;;3.72;1.52;;;;;;;9.71;98.34;99734.75;6117292;23;20022;-87
2023/12/25 11:03:14;;;;;;;1.38;1.17;;;;;;;9.73;98.25;99724.03;6143895;23;20096;-88
2023/12/25 11:05:41;;;;;;;1.95;1.38;;;;;;;9.68;98.50;99721.78;6144381;23;20044;-90
2023/12/25 11:08:08;;;;;;;2.70;1.60;;;;;;;9.69;98.21;99734.06;6096478;23;20025;-91
2023/12/25 11:10:35;;;;;;;2.13;1.20;;;;;;;9.72;98.24;99736.44;6094539;23;20044;-90
2023/12/25 11:13:03;;;;;;;3.65;1.25;;;;;;;9.72;97.56;99725.00;6120410;23;20517;-91
2023/12/25 11:15:30;;;;;;;5.40;1.30;;;;;;;9.71;97.71;99731.28;6121093;23;20076;-90
2023/12/25 11:17:59;;;;;;;3.35;1.45;;;;;;;9.75;97.71;99738.00;6119790;23;20029;-89
2023/12/25 11:20:29;;;;;;;2.92;1.48;;;;;;;9.72;97.70;99725.84;6119359;23;20022;-90
2023/12/25 11:22:56;;;;;;;2.55;1.30;;;;;;;9.73;98.43;99734.63;6092528;23;20033;-92
2023/12/25 11:25:24;;;;;;;2.33;2.13;;;;;;;9.74;98.19;99739.81;6089491;23;20049;-91
2023/12/25 11:27:53;;;;;;;4.18;1.13;;;;;;;9.73;98.47;99729.34;6093598;23;20022;-93
2023/12/25 11:30:23;;;;;;;2.33;1.10;;;;;;;9.72;98.14;99728.50;6164782;23;20030;-93
2023/12/25 11:32:51;;;;;;;4.90;2.40;;;;;;;9.75;98.27;99735.34;6093589;23;20100;-93
2023/12/25 11:35:28;;;;;;;2.25;1.42;;;;;;;9.67;98.26;99722.75;6093083;23;20026;-93
2023/12/25 11:38:24;;;;;;;2.35;1.30;;;;;;;9.68;98.39;99740.34;6119270;23;20022;-92
2023/12/25 11:40:51;;;;;;;7.97;1.83;;;;;;;9.74;98.50;99737.16;6118977;23;21365;-87